sensor_id;sensor_type;location;lat;lon;timestamp;P1;durP1;ratioP1;P2;durP2;ratioP2
60472;SDS011;46318;52.716;6.444;2023-03-21T00:01:22;32.95;;;20.77;;
60472;SDS011;46318;52.716;6.444;2023-03-21T00:03:48;30.73;;;19.98;;
60472;SDS011;46318;52.716;6.444;2023-03-21T00:06:15;29.65;;;19.80;;
60472;SDS011;46318;52.716;6.444;2023-03-21T00:08:41;31.98;;;21.40;;
60472;SDS011;46318;52.716;6.444;2023-03-21T00:11:09;33.65;;;21.52;;
60472;SDS011;46318;52.716;6.444;2023-03-21T00:13:36;40.90;;;23.85;;
60472;SDS011;46318;52.716;6.444;2023-03-21T00:16:11;39.38;;;23.42;;
60472;SDS011;46318;52.716;6.444;2023-03-21T00:18:44;38.88;;;23.58;;
60472;SDS011;46318;52.716;6.444;2023-03-21T00:21:16;44.03;;;25.05;;
60472;SDS011;46318;52.716;6.444;2023-03-21T00:23:44;39.72;;;24.48;;
60472;SDS011;46318;52.716;6.444;2023-03-21T00:26:11;45.20;;;25.77;;
60472;SDS011;46318;52.716;6.444;2023-03-21T00:28:38;40.15;;;24.65;;
60472;SDS011;46318;52.716;6.444;2023-03-21T00:31:05;43.13;;;26.13;;
60472;SDS011;46318;52.716;6.444;2023-03-21T00:33:32;45.53;;;26.92;;
60472;SDS011;46318;52.716;6.444;2023-03-21T00:35:59;42.42;;;26.10;;
60472;SDS011;46318;52.716;6.444;2023-03-21T00:38:26;43.33;;;26.45;;
60472;SDS011;46318;52.716;6.444;2023-03-21T00:40:52;42.92;;;26.33;;
60472;SDS011;46318;52.716;6.444;2023-03-21T00:43:18;43.17;;;26.40;;
60472;SDS011;46318;52.716;6.444;2023-03-21T00:45:48;44.65;;;26.75;;
60472;SDS011;46318;52.716;6.444;2023-03-21T00:48:15;45.50;;;27.13;;
60472;SDS011;46318;52.716;6.444;2023-03-21T00:50:43;46.10;;;27.08;;
60472;SDS011;46318;52.716;6.444;2023-03-21T00:53:11;43.50;;;26.92;;
60472;SDS011;46318;52.716;6.444;2023-03-21T00:55:38;45.83;;;26.80;;
60472;SDS011;46318;52.716;6.444;2023-03-21T00:58:04;41.40;;;26.55;;
60472;SDS011;46318;52.716;6.444;2023-03-21T01:00:31;48.08;;;26.02;;
60472;SDS011;46318;52.716;6.444;2023-03-21T01:03:00;42.63;;;26.17;;
60472;SDS011;46318;52.716;6.444;2023-03-21T01:05:53;41.10;;;25.20;;
60472;SDS011;46318;52.716;6.444;2023-03-21T01:08:35;43.72;;;25.77;;
60472;SDS011;46318;52.716;6.444;2023-03-21T01:11:05;41.85;;;23.95;;
60472;SDS011;46318;52.716;6.444;2023-03-21T01:13:35;42.30;;;24.75;;
60472;SDS011;46318;52.716;6.444;2023-03-21T01:16:01;37.92;;;23.50;;
60472;SDS011;46318;52.716;6.444;2023-03-21T01:18:30;39.40;;;23.20;;
60472;SDS011;46318;52.716;6.444;2023-03-21T01:20:57;38.47;;;23.52;;
60472;SDS011;46318;52.716;6.444;2023-03-21T01:23:25;38.63;;;22.45;;
60472;SDS011;46318;52.716;6.444;2023-03-21T01:25:54;38.95;;;22.42;;
60472;SDS011;46318;52.716;6.444;2023-03-21T01:28:21;34.25;;;21.27;;
60472;SDS011;46318;52.716;6.444;2023-03-21T01:30:50;35.67;;;21.90;;
60472;SDS011;46318;52.716;6.444;2023-03-21T01:33:16;34.55;;;21.40;;
60472;SDS011;46318;52.716;6.444;2023-03-21T01:35:43;35.00;;;20.73;;
60472;SDS011;46318;52.716;6.444;2023-03-21T01:38:10;34.47;;;20.60;;
60472;SDS011;46318;52.716;6.444;2023-03-21T01:40:37;36.95;;;21.30;;
60472;SDS011;46318;52.716;6.444;2023-03-21T01:49:11;35.03;;;21.38;;
60472;SDS011;46318;52.716;6.444;2023-03-21T01:51:52;34.65;;;20.77;;
60472;SDS011;46318;52.716;6.444;2023-03-21T01:54:25;35.05;;;21.58;;
60472;SDS011;46318;52.716;6.444;2023-03-21T01:56:57;39.55;;;21.88;;
60472;SDS011;46318;52.716;6.444;2023-03-21T02:02:01;35.53;;;21.70;;
60472;SDS011;46318;52.716;6.444;2023-03-21T02:04:34;37.50;;;20.58;;
60472;SDS011;46318;52.716;6.444;2023-03-21T02:07:11;34.70;;;19.95;;
60472;SDS011;46318;52.716;6.444;2023-03-21T02:09:43;34.90;;;21.52;;
60472;SDS011;46318;52.716;6.444;2023-03-21T02:12:13;36.72;;;20.92;;
60472;SDS011;46318;52.716;6.444;2023-03-21T02:14:40;35.00;;;20.45;;
60472;SDS011;46318;52.716;6.444;2023-03-21T02:33:51;29.33;;;18.00;;
60472;SDS011;46318;52.716;6.444;2023-03-21T02:36:57;30.20;;;18.15;;
60472;SDS011;46318;52.716;6.444;2023-03-21T02:42:51;30.65;;;18.55;;
60472;SDS011;46318;52.716;6.444;2023-03-21T02:45:43;28.95;;;18.45;;
60472;SDS011;46318;52.716;6.444;2023-03-21T02:48:18;28.67;;;17.90;;
60472;SDS011;46318;52.716;6.444;2023-03-21T02:50:55;27.67;;;17.95;;
60472;SDS011;46318;52.716;6.444;2023-03-21T02:53:25;28.92;;;18.45;;
60472;SDS011;46318;52.716;6.444;2023-03-21T02:55:55;27.45;;;17.80;;
60472;SDS011;46318;52.716;6.444;2023-03-21T02:58:23;28.15;;;18.83;;
60472;SDS011;46318;52.716;6.444;2023-03-21T03:00:52;26.60;;;19.25;;
60472;SDS011;46318;52.716;6.444;2023-03-21T03:03:20;33.10;;;19.63;;
60472;SDS011;46318;52.716;6.444;2023-03-21T03:05:51;28.83;;;19.52;;
60472;SDS011;46318;52.716;6.444;2023-03-21T03:11:21;27.73;;;19.25;;
60472;SDS011;46318;52.716;6.444;2023-03-21T03:19:28;26.35;;;19.08;;
60472;SDS011;46318;52.716;6.444;2023-03-21T03:22:07;26.58;;;17.80;;
60472;SDS011;46318;52.716;6.444;2023-03-21T03:24:52;23.40;;;17.00;;
60472;SDS011;46318;52.716;6.444;2023-03-21T03:27:26;27.55;;;17.75;;
60472;SDS011;46318;52.716;6.444;2023-03-21T03:30:00;25.35;;;18.55;;
60472;SDS011;46318;52.716;6.444;2023-03-21T03:32:39;25.40;;;17.88;;
60472;SDS011;46318;52.716;6.444;2023-03-21T03:35:12;26.45;;;17.70;;
60472;SDS011;46318;52.716;6.444;2023-03-21T03:37:42;25.92;;;18.30;;
60472;SDS011;46318;52.716;6.444;2023-03-21T03:43:06;28.13;;;18.98;;
60472;SDS011;46318;52.716;6.444;2023-03-21T03:45:57;25.92;;;17.95;;
60472;SDS011;46318;52.716;6.444;2023-03-21T03:49:08;27.70;;;18.45;;
60472;SDS011;46318;52.716;6.444;2023-03-21T03:51:35;24.85;;;18.48;;
60472;SDS011;46318;52.716;6.444;2023-03-21T03:54:20;28.98;;;19.25;;
60472;SDS011;46318;52.716;6.444;2023-03-21T03:56:52;27.08;;;18.42;;
60472;SDS011;46318;52.716;6.444;2023-03-21T03:59:19;30.20;;;20.10;;
60472;SDS011;46318;52.716;6.444;2023-03-21T04:01:49;25.83;;;18.27;;
60472;SDS011;46318;52.716;6.444;2023-03-21T04:04:15;28.38;;;19.10;;
60472;SDS011;46318;52.716;6.444;2023-03-21T04:06:44;27.15;;;18.88;;
60472;SDS011;46318;52.716;6.444;2023-03-21T04:09:15;26.77;;;18.98;;
60472;SDS011;46318;52.716;6.444;2023-03-21T04:11:43;26.67;;;19.25;;
60472;SDS011;46318;52.716;6.444;2023-03-21T04:14:09;24.50;;;18.35;;
60472;SDS011;46318;52.716;6.444;2023-03-21T04:16:35;26.65;;;18.50;;
60472;SDS011;46318;52.716;6.444;2023-03-21T04:19:00;26.50;;;19.08;;
60472;SDS011;46318;52.716;6.444;2023-03-21T04:21:26;28.05;;;19.92;;
60472;SDS011;46318;52.716;6.444;2023-03-21T04:23:53;28.42;;;19.83;;
60472;SDS011;46318;52.716;6.444;2023-03-21T04:26:20;27.05;;;19.60;;
60472;SDS011;46318;52.716;6.444;2023-03-21T04:28:47;28.88;;;21.27;;
60472;SDS011;46318;52.716;6.444;2023-03-21T04:31:14;28.10;;;20.20;;
60472;SDS011;46318;52.716;6.444;2023-03-21T04:33:42;30.65;;;21.77;;
60472;SDS011;46318;52.716;6.444;2023-03-21T04:36:08;31.77;;;21.77;;
60472;SDS011;46318;52.716;6.444;2023-03-21T04:38:50;32.15;;;21.75;;
60472;SDS011;46318;52.716;6.444;2023-03-21T04:41:16;33.22;;;22.42;;
60472;SDS011;46318;52.716;6.444;2023-03-21T04:43:43;33.70;;;22.95;;
60472;SDS011;46318;52.716;6.444;2023-03-21T04:46:10;38.00;;;24.05;;
60472;SDS011;46318;52.716;6.444;2023-03-21T04:48:35;36.83;;;24.85;;
60472;SDS011;46318;52.716;6.444;2023-03-21T04:51:01;34.65;;;24.30;;
60472;SDS011;46318;52.716;6.444;2023-03-21T04:53:27;37.10;;;25.70;;
60472;SDS011;46318;52.716;6.444;2023-03-21T04:55:53;36.85;;;25.55;;
60472;SDS011;46318;52.716;6.444;2023-03-21T04:58:21;38.92;;;26.05;;
60472;SDS011;46318;52.716;6.444;2023-03-21T05:00:48;41.50;;;27.70;;
60472;SDS011;46318;52.716;6.444;2023-03-21T05:03:17;39.88;;;26.88;;
60472;SDS011;46318;52.716;6.444;2023-03-21T05:05:46;41.15;;;26.48;;
60472;SDS011;46318;52.716;6.444;2023-03-21T05:08:15;42.90;;;27.83;;
60472;SDS011;46318;52.716;6.444;2023-03-21T05:10:41;42.53;;;28.50;;
60472;SDS011;46318;52.716;6.444;2023-03-21T05:13:08;42.17;;;27.92;;
60472;SDS011;46318;52.716;6.444;2023-03-21T05:15:34;42.80;;;27.63;;
60472;SDS011;46318;52.716;6.444;2023-03-21T05:18:00;43.25;;;28.35;;
60472;SDS011;46318;52.716;6.444;2023-03-21T05:20:35;40.67;;;27.83;;
60472;SDS011;46318;52.716;6.444;2023-03-21T05:23:08;43.53;;;28.75;;
60472;SDS011;46318;52.716;6.444;2023-03-21T05:25:38;48.30;;;29.58;;
60472;SDS011;46318;52.716;6.444;2023-03-21T05:28:05;44.60;;;29.00;;
60472;SDS011;46318;52.716;6.444;2023-03-21T05:30:32;42.60;;;28.88;;
60472;SDS011;46318;52.716;6.444;2023-03-21T05:32:58;48.20;;;29.33;;
60472;SDS011;46318;52.716;6.444;2023-03-21T05:35:24;46.40;;;30.23;;
60472;SDS011;46318;52.716;6.444;2023-03-21T05:37:51;47.53;;;30.40;;
60472;SDS011;46318;52.716;6.444;2023-03-21T05:40:17;51.90;;;30.10;;
60472;SDS011;46318;52.716;6.444;2023-03-21T05:42:44;44.70;;;28.27;;
60472;SDS011;46318;52.716;6.444;2023-03-21T05:45:11;53.72;;;31.90;;
60472;SDS011;46318;52.716;6.444;2023-03-21T05:47:38;47.28;;;29.55;;
60472;SDS011;46318;52.716;6.444;2023-03-21T05:50:04;47.60;;;30.60;;
60472;SDS011;46318;52.716;6.444;2023-03-21T05:52:31;45.92;;;29.77;;
60472;SDS011;46318;52.716;6.444;2023-03-21T05:54:57;46.80;;;29.55;;
60472;SDS011;46318;52.716;6.444;2023-03-21T05:57:23;44.47;;;28.63;;
60472;SDS011;46318;52.716;6.444;2023-03-21T05:59:52;43.47;;;28.38;;
60472;SDS011;46318;52.716;6.444;2023-03-21T06:02:17;43.58;;;27.23;;
60472;SDS011;46318;52.716;6.444;2023-03-21T06:04:43;47.13;;;28.63;;
60472;SDS011;46318;52.716;6.444;2023-03-21T06:07:09;44.40;;;27.10;;
60472;SDS011;46318;52.716;6.444;2023-03-21T06:09:35;41.38;;;26.33;;
60472;SDS011;46318;52.716;6.444;2023-03-21T06:12:01;40.85;;;26.40;;
60472;SDS011;46318;52.716;6.444;2023-03-21T06:14:27;40.75;;;26.60;;
60472;SDS011;46318;52.716;6.444;2023-03-21T06:16:53;37.80;;;25.48;;
60472;SDS011;46318;52.716;6.444;2023-03-21T06:19:19;37.00;;;25.10;;
60472;SDS011;46318;52.716;6.444;2023-03-21T06:21:46;37.03;;;24.20;;
60472;SDS011;46318;52.716;6.444;2023-03-21T06:24:12;34.33;;;23.70;;
60472;SDS011;46318;52.716;6.444;2023-03-21T06:26:38;28.52;;;20.30;;
60472;SDS011;46318;52.716;6.444;2023-03-21T06:29:06;28.45;;;20.08;;
60472;SDS011;46318;52.716;6.444;2023-03-21T06:31:32;30.58;;;20.55;;
60472;SDS011;46318;52.716;6.444;2023-03-21T06:33:58;28.98;;;20.40;;
60472;SDS011;46318;52.716;6.444;2023-03-21T06:36:24;25.70;;;18.60;;
60472;SDS011;46318;52.716;6.444;2023-03-21T06:38:50;26.45;;;18.35;;
60472;SDS011;46318;52.716;6.444;2023-03-21T06:41:16;27.52;;;19.10;;
60472;SDS011;46318;52.716;6.444;2023-03-21T06:43:42;29.25;;;19.33;;
60472;SDS011;46318;52.716;6.444;2023-03-21T06:46:08;28.02;;;18.20;;
60472;SDS011;46318;52.716;6.444;2023-03-21T06:48:34;26.45;;;19.25;;
60472;SDS011;46318;52.716;6.444;2023-03-21T06:51:01;27.40;;;19.40;;
60472;SDS011;46318;52.716;6.444;2023-03-21T06:53:29;30.60;;;20.38;;
60472;SDS011;46318;52.716;6.444;2023-03-21T06:55:55;27.50;;;19.67;;
60472;SDS011;46318;52.716;6.444;2023-03-21T06:58:21;30.55;;;19.50;;
60472;SDS011;46318;52.716;6.444;2023-03-21T07:00:48;27.23;;;19.95;;
60472;SDS011;46318;52.716;6.444;2023-03-21T07:03:14;28.48;;;20.60;;
60472;SDS011;46318;52.716;6.444;2023-03-21T07:05:41;30.10;;;20.85;;
60472;SDS011;46318;52.716;6.444;2023-03-21T07:08:07;29.75;;;20.75;;
60472;SDS011;46318;52.716;6.444;2023-03-21T07:10:43;32.50;;;22.10;;
60472;SDS011;46318;52.716;6.444;2023-03-21T07:13:11;30.90;;;21.23;;
60472;SDS011;46318;52.716;6.444;2023-03-21T07:15:37;29.25;;;21.73;;
60472;SDS011;46318;52.716;6.444;2023-03-21T07:18:05;33.70;;;22.35;;
60472;SDS011;46318;52.716;6.444;2023-03-21T07:20:33;31.60;;;22.65;;
60472;SDS011;46318;52.716;6.444;2023-03-21T07:23:02;31.95;;;23.05;;
60472;SDS011;46318;52.716;6.444;2023-03-21T07:25:28;31.15;;;22.17;;
60472;SDS011;46318;52.716;6.444;2023-03-21T07:27:54;32.72;;;22.25;;
60472;SDS011;46318;52.716;6.444;2023-03-21T07:30:21;32.63;;;21.65;;
60472;SDS011;46318;52.716;6.444;2023-03-21T07:32:47;30.55;;;22.52;;
60472;SDS011;46318;52.716;6.444;2023-03-21T07:35:13;34.75;;;23.58;;
60472;SDS011;46318;52.716;6.444;2023-03-21T07:37:41;30.23;;;21.63;;
60472;SDS011;46318;52.716;6.444;2023-03-21T07:40:07;35.03;;;23.52;;
60472;SDS011;46318;52.716;6.444;2023-03-21T07:42:37;34.13;;;22.70;;
60472;SDS011;46318;52.716;6.444;2023-03-21T07:45:05;33.92;;;23.08;;
60472;SDS011;46318;52.716;6.444;2023-03-21T07:47:32;32.65;;;21.63;;
60472;SDS011;46318;52.716;6.444;2023-03-21T07:49:59;37.10;;;22.92;;
60472;SDS011;46318;52.716;6.444;2023-03-21T07:52:25;32.78;;;21.80;;
60472;SDS011;46318;52.716;6.444;2023-03-21T07:54:51;35.47;;;22.23;;
60472;SDS011;46318;52.716;6.444;2023-03-21T07:57:17;30.63;;;21.85;;
60472;SDS011;46318;52.716;6.444;2023-03-21T07:59:43;31.02;;;22.05;;
60472;SDS011;46318;52.716;6.444;2023-03-21T08:02:12;35.15;;;22.27;;
60472;SDS011;46318;52.716;6.444;2023-03-21T08:04:40;33.28;;;22.42;;
60472;SDS011;46318;52.716;6.444;2023-03-21T08:07:06;33.08;;;22.25;;
60472;SDS011;46318;52.716;6.444;2023-03-21T08:09:32;35.55;;;22.50;;
60472;SDS011;46318;52.716;6.444;2023-03-21T08:11:58;31.20;;;21.63;;
60472;SDS011;46318;52.716;6.444;2023-03-21T08:14:24;35.20;;;21.27;;
60472;SDS011;46318;52.716;6.444;2023-03-21T08:16:50;32.35;;;22.80;;
60472;SDS011;46318;52.716;6.444;2023-03-21T08:19:16;34.00;;;23.10;;
60472;SDS011;46318;52.716;6.444;2023-03-21T08:21:45;36.60;;;23.40;;
60472;SDS011;46318;52.716;6.444;2023-03-21T08:24:14;34.88;;;22.63;;
60472;SDS011;46318;52.716;6.444;2023-03-21T08:26:40;33.45;;;22.48;;
60472;SDS011;46318;52.716;6.444;2023-03-21T08:29:11;35.85;;;23.02;;
60472;SDS011;46318;52.716;6.444;2023-03-21T08:31:41;35.00;;;22.95;;
60472;SDS011;46318;52.716;6.444;2023-03-21T08:34:06;31.48;;;23.05;;
60472;SDS011;46318;52.716;6.444;2023-03-21T08:36:34;32.17;;;21.45;;
60472;SDS011;46318;52.716;6.444;2023-03-21T08:39:02;32.08;;;22.17;;
60472;SDS011;46318;52.716;6.444;2023-03-21T08:41:33;33.90;;;22.05;;
60472;SDS011;46318;52.716;6.444;2023-03-21T08:44:00;30.80;;;22.10;;
60472;SDS011;46318;52.716;6.444;2023-03-21T08:46:28;31.92;;;21.02;;
60472;SDS011;46318;52.716;6.444;2023-03-21T08:48:54;30.77;;;20.40;;
60472;SDS011;46318;52.716;6.444;2023-03-21T08:51:20;33.00;;;21.80;;
60472;SDS011;46318;52.716;6.444;2023-03-21T08:53:47;33.55;;;22.13;;
60472;SDS011;46318;52.716;6.444;2023-03-21T08:56:15;33.67;;;21.65;;
60472;SDS011;46318;52.716;6.444;2023-03-21T08:58:42;37.05;;;24.02;;
60472;SDS011;46318;52.716;6.444;2023-03-21T09:01:08;33.13;;;21.40;;
60472;SDS011;46318;52.716;6.444;2023-03-21T09:03:39;31.60;;;20.88;;
60472;SDS011;46318;52.716;6.444;2023-03-21T09:06:09;34.03;;;21.40;;
60472;SDS011;46318;52.716;6.444;2023-03-21T09:08:38;30.20;;;20.38;;
60472;SDS011;46318;52.716;6.444;2023-03-21T09:11:06;32.50;;;21.25;;
60472;SDS011;46318;52.716;6.444;2023-03-21T09:13:33;31.17;;;22.17;;
60472;SDS011;46318;52.716;6.444;2023-03-21T09:15:59;28.98;;;20.80;;
60472;SDS011;46318;52.716;6.444;2023-03-21T09:18:26;38.22;;;24.95;;
60472;SDS011;46318;52.716;6.444;2023-03-21T09:21:16;34.35;;;23.00;;
60472;SDS011;46318;52.716;6.444;2023-03-21T09:23:44;32.60;;;22.77;;
60472;SDS011;46318;52.716;6.444;2023-03-21T09:26:11;34.33;;;23.05;;
60472;SDS011;46318;52.716;6.444;2023-03-21T09:28:37;33.25;;;23.40;;
60472;SDS011;46318;52.716;6.444;2023-03-21T09:31:05;33.30;;;23.20;;
60472;SDS011;46318;52.716;6.444;2023-03-21T09:33:33;36.63;;;23.80;;
60472;SDS011;46318;52.716;6.444;2023-03-21T09:35:59;36.22;;;23.60;;
60472;SDS011;46318;52.716;6.444;2023-03-21T09:38:26;36.00;;;24.63;;
60472;SDS011;46318;52.716;6.444;2023-03-21T09:49:23;29.30;;;19.42;;
60472;SDS011;46318;52.716;6.444;2023-03-21T09:52:00;32.13;;;20.92;;
60472;SDS011;46318;52.716;6.444;2023-03-21T09:54:34;28.85;;;19.98;;
60472;SDS011;46318;52.716;6.444;2023-03-21T09:57:18;29.73;;;19.85;;
60472;SDS011;46318;52.716;6.444;2023-03-21T09:59:55;27.65;;;18.48;;
60472;SDS011;46318;52.716;6.444;2023-03-21T10:02:36;29.02;;;18.55;;
60472;SDS011;46318;52.716;6.444;2023-03-21T10:05:16;26.42;;;18.65;;
60472;SDS011;46318;52.716;6.444;2023-03-21T10:08:34;25.33;;;16.75;;
60472;SDS011;46318;52.716;6.444;2023-03-21T10:10:44;28.60;;;18.45;;
60472;SDS011;46318;52.716;6.444;2023-03-21T10:13:19;28.05;;;17.67;;
60472;SDS011;46318;52.716;6.444;2023-03-21T10:15:55;30.20;;;17.75;;
60472;SDS011;46318;52.716;6.444;2023-03-21T10:18:24;27.73;;;17.45;;
60472;SDS011;46318;52.716;6.444;2023-03-21T10:20:54;27.15;;;19.08;;
60472;SDS011;46318;52.716;6.444;2023-03-21T10:23:26;27.35;;;17.98;;
60472;SDS011;46318;52.716;6.444;2023-03-21T10:25:57;28.40;;;18.65;;
60472;SDS011;46318;52.716;6.444;2023-03-21T10:28:30;23.08;;;17.10;;
60472;SDS011;46318;52.716;6.444;2023-03-21T10:31:02;26.77;;;17.13;;
60472;SDS011;46318;52.716;6.444;2023-03-21T10:33:32;27.13;;;17.10;;
60472;SDS011;46318;52.716;6.444;2023-03-21T10:36:07;23.00;;;16.45;;
60472;SDS011;46318;52.716;6.444;2023-03-21T10:38:37;28.20;;;18.00;;
60472;SDS011;46318;52.716;6.444;2023-03-21T10:41:12;35.40;;;26.33;;
60472;SDS011;46318;52.716;6.444;2023-03-21T10:43:39;41.35;;;30.60;;
60472;SDS011;46318;52.716;6.444;2023-03-21T10:46:07;29.67;;;20.92;;
60472;SDS011;46318;52.716;6.444;2023-03-21T10:48:51;29.00;;;22.17;;
60472;SDS011;46318;52.716;6.444;2023-03-21T10:51:19;32.40;;;23.02;;
60472;SDS011;46318;52.716;6.444;2023-03-21T10:53:49;29.27;;;22.15;;
60472;SDS011;46318;52.716;6.444;2023-03-21T10:56:22;25.65;;;19.20;;
60472;SDS011;46318;52.716;6.444;2023-03-21T10:58:59;31.30;;;18.65;;
60472;SDS011;46318;52.716;6.444;2023-03-21T11:01:33;27.17;;;19.05;;
60472;SDS011;46318;52.716;6.444;2023-03-21T11:04:16;29.42;;;20.63;;
60472;SDS011;46318;52.716;6.444;2023-03-21T11:06:53;27.67;;;18.08;;
60472;SDS011;46318;52.716;6.444;2023-03-21T11:12:27;24.52;;;16.05;;
60472;SDS011;46318;52.716;6.444;2023-03-21T11:18:12;25.50;;;16.13;;
60472;SDS011;46318;52.716;6.444;2023-03-21T11:21:04;23.92;;;15.15;;
60472;SDS011;46318;52.716;6.444;2023-03-21T11:23:34;22.83;;;15.52;;
60472;SDS011;46318;52.716;6.444;2023-03-21T11:26:14;21.48;;;14.75;;
60472;SDS011;46318;52.716;6.444;2023-03-21T11:28:50;20.33;;;13.98;;
60472;SDS011;46318;52.716;6.444;2023-03-21T11:31:16;19.48;;;13.38;;
60472;SDS011;46318;52.716;6.444;2023-03-21T11:33:55;21.42;;;13.25;;
60472;SDS011;46318;52.716;6.444;2023-03-21T11:38:59;24.08;;;18.45;;
60472;SDS011;46318;52.716;6.444;2023-03-21T11:42:03;19.10;;;14.43;;
60472;SDS011;46318;52.716;6.444;2023-03-21T11:44:48;23.67;;;17.85;;
60472;SDS011;46318;52.716;6.444;2023-03-21T11:47:22;20.77;;;15.63;;
60472;SDS011;46318;52.716;6.444;2023-03-21T11:49:48;22.98;;;16.75;;
60472;SDS011;46318;52.716;6.444;2023-03-21T11:52:35;20.77;;;15.93;;
60472;SDS011;46318;52.716;6.444;2023-03-21T11:58:26;19.85;;;15.10;;
60472;SDS011;46318;52.716;6.444;2023-03-21T12:06:52;23.77;;;18.13;;
60472;SDS011;46318;52.716;6.444;2023-03-21T12:21:19;14.05;;;9.85;;
60472;SDS011;46318;52.716;6.444;2023-03-21T12:43:38;13.63;;;9.43;;
60472;SDS011;46318;52.716;6.444;2023-03-21T12:46:28;13.93;;;10.18;;
60472;SDS011;46318;52.716;6.444;2023-03-21T12:49:08;17.55;;;12.57;;
60472;SDS011;46318;52.716;6.444;2023-03-21T12:51:50;14.90;;;10.70;;
60472;SDS011;46318;52.716;6.444;2023-03-21T12:57:02;13.27;;;9.98;;
60472;SDS011;46318;52.716;6.444;2023-03-21T13:08:12;14.15;;;9.60;;
60472;SDS011;46318;52.716;6.444;2023-03-21T13:10:48;13.18;;;9.45;;
60472;SDS011;46318;52.716;6.444;2023-03-21T13:16:13;12.77;;;9.63;;
60472;SDS011;46318;52.716;6.444;2023-03-21T13:18:56;12.98;;;10.13;;
60472;SDS011;46318;52.716;6.444;2023-03-21T13:24:41;14.07;;;10.00;;
60472;SDS011;46318;52.716;6.444;2023-03-21T13:37:51;13.35;;;9.70;;
60472;SDS011;46318;52.716;6.444;2023-03-21T13:40:24;16.13;;;10.02;;
60472;SDS011;46318;52.716;6.444;2023-03-21T13:43:00;12.52;;;9.65;;
60472;SDS011;46318;52.716;6.444;2023-03-21T13:45:50;14.90;;;9.50;;
60472;SDS011;46318;52.716;6.444;2023-03-21T13:48:25;18.42;;;10.48;;
60472;SDS011;46318;52.716;6.444;2023-03-21T13:51:01;14.80;;;9.80;;
60472;SDS011;46318;52.716;6.444;2023-03-21T13:53:36;13.55;;;9.57;;
60472;SDS011;46318;52.716;6.444;2023-03-21T14:04:10;18.63;;;10.05;;
60472;SDS011;46318;52.716;6.444;2023-03-21T14:09:32;60.35;;;32.53;;
60472;SDS011;46318;52.716;6.444;2023-03-21T14:12:13;31.33;;;18.52;;
60472;SDS011;46318;52.716;6.444;2023-03-21T14:14:52;24.95;;;14.77;;
60472;SDS011;46318;52.716;6.444;2023-03-21T14:17:30;27.13;;;15.68;;
60472;SDS011;46318;52.716;6.444;2023-03-21T14:19:59;43.80;;;25.85;;
60472;SDS011;46318;52.716;6.444;2023-03-21T14:22:47;50.53;;;30.17;;
60472;SDS011;46318;52.716;6.444;2023-03-21T14:25:14;31.55;;;19.30;;
60472;SDS011;46318;52.716;6.444;2023-03-21T14:27:52;31.92;;;20.13;;
60472;SDS011;46318;52.716;6.444;2023-03-21T14:30:23;21.48;;;14.73;;
60472;SDS011;46318;52.716;6.444;2023-03-21T14:35:56;14.98;;;12.27;;
60472;SDS011;46318;52.716;6.444;2023-03-21T14:38:26;20.02;;;16.52;;
60472;SDS011;46318;52.716;6.444;2023-03-21T14:40:59;19.17;;;14.98;;
60472;SDS011;46318;52.716;6.444;2023-03-21T14:43:26;16.58;;;12.68;;
60472;SDS011;46318;52.716;6.444;2023-03-21T14:45:53;13.13;;;10.75;;
60472;SDS011;46318;52.716;6.444;2023-03-21T14:48:31;17.27;;;13.27;;
60472;SDS011;46318;52.716;6.444;2023-03-21T14:51:03;14.25;;;12.10;;
60472;SDS011;46318;52.716;6.444;2023-03-21T14:53:37;17.50;;;12.65;;
60472;SDS011;46318;52.716;6.444;2023-03-21T14:56:06;17.90;;;13.30;;
60472;SDS011;46318;52.716;6.444;2023-03-21T14:58:41;15.20;;;12.20;;
60472;SDS011;46318;52.716;6.444;2023-03-21T15:01:16;15.93;;;11.57;;
60472;SDS011;46318;52.716;6.444;2023-03-21T15:03:57;18.25;;;11.90;;
60472;SDS011;46318;52.716;6.444;2023-03-21T15:06:25;41.15;;;23.60;;
60472;SDS011;46318;52.716;6.444;2023-03-21T15:08:55;48.78;;;29.55;;
60472;SDS011;46318;52.716;6.444;2023-03-21T15:11:29;37.30;;;22.50;;
60472;SDS011;46318;52.716;6.444;2023-03-21T15:14:04;20.98;;;16.95;;
60472;SDS011;46318;52.716;6.444;2023-03-21T15:16:33;36.60;;;24.27;;
60472;SDS011;46318;52.716;6.444;2023-03-21T15:19:00;40.13;;;26.70;;
60472;SDS011;46318;52.716;6.444;2023-03-21T15:21:30;50.22;;;30.83;;
60472;SDS011;46318;52.716;6.444;2023-03-21T15:24:05;25.00;;;18.13;;
60472;SDS011;46318;52.716;6.444;2023-03-21T15:26:47;35.17;;;22.45;;
60472;SDS011;46318;52.716;6.444;2023-03-21T15:29:15;35.97;;;24.77;;
60472;SDS011;46318;52.716;6.444;2023-03-21T15:31:42;15.70;;;12.25;;
60472;SDS011;46318;52.716;6.444;2023-03-21T15:34:29;15.48;;;11.80;;
60472;SDS011;46318;52.716;6.444;2023-03-21T15:36:57;15.90;;;12.82;;
60472;SDS011;46318;52.716;6.444;2023-03-21T15:39:29;16.50;;;12.10;;
60472;SDS011;46318;52.716;6.444;2023-03-21T15:42:00;15.43;;;11.35;;
60472;SDS011;46318;52.716;6.444;2023-03-21T15:44:46;15.18;;;11.73;;
60472;SDS011;46318;52.716;6.444;2023-03-21T15:47:34;14.45;;;12.95;;
60472;SDS011;46318;52.716;6.444;2023-03-21T15:53:09;19.65;;;15.68;;
60472;SDS011;46318;52.716;6.444;2023-03-21T15:55:42;20.73;;;15.57;;
60472;SDS011;46318;52.716;6.444;2023-03-21T15:58:22;20.60;;;18.35;;
60472;SDS011;46318;52.716;6.444;2023-03-21T16:00:55;22.40;;;17.58;;
60472;SDS011;46318;52.716;6.444;2023-03-21T16:03:36;22.92;;;16.85;;
60472;SDS011;46318;52.716;6.444;2023-03-21T16:06:07;18.55;;;15.45;;
60472;SDS011;46318;52.716;6.444;2023-03-21T16:13:50;24.25;;;18.50;;
60472;SDS011;46318;52.716;6.444;2023-03-21T16:18:51;23.42;;;17.38;;
60472;SDS011;46318;52.716;6.444;2023-03-21T16:21:19;26.83;;;19.38;;
60472;SDS011;46318;52.716;6.444;2023-03-21T16:23:48;20.45;;;15.23;;
60472;SDS011;46318;52.716;6.444;2023-03-21T16:26:15;19.58;;;16.73;;
60472;SDS011;46318;52.716;6.444;2023-03-21T16:28:46;16.75;;;14.68;;
60472;SDS011;46318;52.716;6.444;2023-03-21T16:31:13;20.08;;;14.40;;
60472;SDS011;46318;52.716;6.444;2023-03-21T16:33:42;16.77;;;12.20;;
60472;SDS011;46318;52.716;6.444;2023-03-21T16:36:13;17.48;;;13.95;;
60472;SDS011;46318;52.716;6.444;2023-03-21T16:38:45;12.10;;;10.90;;
60472;SDS011;46318;52.716;6.444;2023-03-21T16:41:13;17.35;;;15.05;;
60472;SDS011;46318;52.716;6.444;2023-03-21T16:43:41;18.70;;;15.25;;
60472;SDS011;46318;52.716;6.444;2023-03-21T16:46:14;18.75;;;15.50;;
60472;SDS011;46318;52.716;6.444;2023-03-21T16:48:42;17.50;;;15.00;;
60472;SDS011;46318;52.716;6.444;2023-03-21T16:51:14;17.65;;;15.15;;
60472;SDS011;46318;52.716;6.444;2023-03-21T16:53:46;14.40;;;12.90;;
60472;SDS011;46318;52.716;6.444;2023-03-21T16:56:14;15.82;;;11.95;;
60472;SDS011;46318;52.716;6.444;2023-03-21T16:58:44;16.45;;;14.75;;
60472;SDS011;46318;52.716;6.444;2023-03-21T17:01:13;15.13;;;13.63;;
60472;SDS011;46318;52.716;6.444;2023-03-21T17:03:44;15.63;;;14.07;;
60472;SDS011;46318;52.716;6.444;2023-03-21T17:06:12;16.33;;;14.48;;
60472;SDS011;46318;52.716;6.444;2023-03-21T17:08:43;16.63;;;13.65;;
60472;SDS011;46318;52.716;6.444;2023-03-21T17:11:11;15.30;;;13.70;;
60472;SDS011;46318;52.716;6.444;2023-03-21T17:13:45;16.30;;;14.65;;